createdAt,value
2019-03-16T00:01:04.589Z,6.38
2019-03-16T00:03:35.872Z,6.37
2019-03-16T00:06:07.087Z,6.35
2019-03-16T00:08:38.298Z,6.37
2019-03-16T00:11:09.469Z,6.36
2019-03-16T00:13:40.684Z,6.34
2019-03-16T00:16:11.854Z,6.38
2019-03-16T00:18:43.176Z,6.39
2019-03-16T00:21:14.346Z,6.42
2019-03-16T00:23:45.555Z,6.42
2019-03-16T00:26:16.838Z,6.44
2019-03-16T00:28:48.082Z,6.45
2019-03-16T00:31:19.339Z,6.46
2019-03-16T00:33:50.564Z,6.46
2019-03-16T00:36:22.050Z,6.45
2019-03-16T00:38:53.749Z,6.48
2019-03-16T00:41:24.871Z,6.53
2019-03-16T00:43:56.092Z,6.50
2019-03-16T00:46:27.616Z,6.51
2019-03-16T00:48:59.144Z,6.53
2019-03-16T00:51:30.445Z,6.50
2019-03-16T00:54:01.939Z,6.54
2019-03-16T00:56:33.262Z,6.60
2019-03-16T00:59:04.413Z,6.53
2019-03-16T01:01:35.606Z,6.57
2019-03-16T01:04:06.823Z,6.59
2019-03-16T01:06:38.062Z,6.59
2019-03-16T01:09:09.754Z,6.66
2019-03-16T01:11:40.968Z,6.64
2019-03-16T01:14:12.508Z,6.68
2019-03-16T01:16:43.757Z,6.67
2019-03-16T01:19:14.939Z,6.69
2019-03-16T01:21:46.659Z,6.71
2019-03-16T01:24:18.206Z,6.68
2019-03-16T01:26:49.400Z,6.73
2019-03-16T01:29:21.211Z,6.69
2019-03-16T01:31:52.463Z,6.70
2019-03-16T01:34:24.016Z,6.64
2019-03-16T01:36:55.191Z,6.66
2019-03-16T01:39:26.569Z,6.67
2019-03-16T01:41:58.096Z,6.67
2019-03-16T01:44:29.250Z,6.67
2019-03-16T01:47:00.788Z,6.64
2019-03-16T01:49:32.004Z,6.63
2019-03-16T01:52:03.293Z,6.59
2019-03-16T01:54:34.419Z,6.61
2019-03-16T01:57:05.575Z,6.66
2019-03-16T01:59:36.767Z,6.69
2019-03-16T02:02:08.321Z,6.63
2019-03-16T02:04:39.512Z,6.64
2019-03-16T02:07:10.714Z,6.64
2019-03-16T02:09:41.964Z,6.64
2019-03-16T02:12:13.146Z,6.71
2019-03-16T02:14:44.306Z,6.67
2019-03-16T02:17:15.535Z,6.71
2019-03-16T02:19:46.839Z,6.67
2019-03-16T02:22:18.326Z,6.65
2019-03-16T02:24:49.508Z,6.69
2019-03-16T02:27:20.677Z,6.73
2019-03-16T02:29:51.931Z,6.70
2019-03-16T02:32:23.568Z,6.77
2019-03-16T02:34:54.799Z,6.69
2019-03-16T02:37:25.949Z,6.61
2019-03-16T02:39:57.212Z,6.57
2019-03-16T02:42:28.388Z,6.57
2019-03-16T02:44:59.710Z,6.55
2019-03-16T02:47:30.897Z,6.55
2019-03-16T02:50:02.709Z,6.53
2019-03-16T02:52:34.329Z,6.50
2019-03-16T02:55:06.121Z,6.49
2019-03-16T02:57:37.579Z,6.46
2019-03-16T03:00:10.094Z,6.50
2019-03-16T03:02:42.426Z,6.53
2019-03-16T03:05:14.095Z,6.52
2019-03-16T03:07:45.291Z,6.51
2019-03-16T03:10:16.622Z,6.51
2019-03-16T03:12:47.840Z,6.50
2019-03-16T03:15:18.982Z,6.49
2019-03-16T03:17:50.239Z,6.46
2019-03-16T03:20:23.787Z,6.44
2019-03-16T03:22:55.126Z,6.47
2019-03-16T03:25:26.388Z,6.42
2019-03-16T03:27:57.598Z,6.47
2019-03-16T03:30:28.940Z,6.43
2019-03-16T03:33:00.132Z,6.42
2019-03-16T03:35:31.309Z,6.42
2019-03-16T03:38:02.502Z,6.41
2019-03-16T03:40:33.733Z,6.45
2019-03-16T03:43:05.313Z,6.39
2019-03-16T03:45:36.571Z,6.40
2019-03-16T03:48:07.718Z,6.40
2019-03-16T03:50:38.970Z,6.32
2019-03-16T03:53:10.224Z,6.28
2019-03-16T03:55:42.550Z,6.33
2019-03-16T03:58:13.948Z,6.30
2019-03-16T04:00:45.180Z,6.30
2019-03-16T04:03:17.113Z,6.27
2019-03-16T04:05:48.416Z,6.20
2019-03-16T04:08:19.541Z,6.30
2019-03-16T04:10:50.734Z,6.34
2019-03-16T04:13:21.930Z,6.28
2019-03-16T04:15:54.205Z,6.27
2019-03-16T04:18:25.433Z,6.29
2019-03-16T04:20:56.615Z,6.27
2019-03-16T04:23:27.829Z,6.38
2019-03-16T04:25:59.358Z,6.42
2019-03-16T04:28:30.568Z,6.46
2019-03-16T04:31:01.751Z,6.48
2019-03-16T04:33:32.915Z,6.42
2019-03-16T04:36:05.561Z,6.42
2019-03-16T04:38:38.529Z,6.40
2019-03-16T04:41:11.185Z,6.41
2019-03-16T04:43:42.390Z,6.37
2019-03-16T04:46:13.697Z,6.42
2019-03-16T04:48:45.242Z,6.44
2019-03-16T04:51:16.462Z,6.49
2019-03-16T04:53:47.781Z,6.47
2019-03-16T04:56:18.891Z,6.41
2019-03-16T04:58:51.767Z,6.43
2019-03-16T05:01:23.225Z,6.42
2019-03-16T05:03:54.382Z,6.43
2019-03-16T05:06:26.204Z,6.47
2019-03-16T05:08:58.444Z,6.46
2019-03-16T05:11:29.622Z,6.49
2019-03-16T05:14:01.576Z,6.43
2019-03-16T05:16:32.903Z,6.44
2019-03-16T05:19:04.087Z,6.42
2019-03-16T05:21:35.398Z,6.42
2019-03-16T05:24:07.092Z,6.47
2019-03-16T05:26:38.269Z,6.49
2019-03-16T05:29:09.487Z,6.52
2019-03-16T05:31:40.776Z,6.51
2019-03-16T05:34:13.110Z,6.46
2019-03-16T05:36:44.274Z,6.56
2019-03-16T05:39:15.492Z,6.54
2019-03-16T05:41:46.648Z,6.40
2019-03-16T05:44:18.241Z,6.48
2019-03-16T05:46:49.427Z,6.46
2019-03-16T05:49:20.602Z,6.46
2019-03-16T05:51:51.848Z,6.44
2019-03-16T05:54:23.043Z,6.43
2019-03-16T05:56:54.246Z,6.45
2019-03-16T05:59:25.734Z,6.38
2019-03-16T06:01:56.956Z,6.42
2019-03-16T06:04:28.184Z,6.51
2019-03-16T06:06:59.448Z,6.49
2019-03-16T06:09:30.588Z,6.52
2019-03-16T06:12:01.764Z,6.53
2019-03-16T06:14:33.020Z,6.53
2019-03-16T06:17:04.252Z,6.52
2019-03-16T06:19:35.585Z,6.53
2019-03-16T06:22:06.899Z,6.57
2019-03-16T06:24:38.264Z,6.61
2019-03-16T06:27:12.321Z,6.61
2019-03-16T06:29:43.498Z,6.64
2019-03-16T06:32:14.813Z,6.67
2019-03-16T06:34:48.330Z,6.61
2019-03-16T06:37:19.646Z,6.64
2019-03-16T06:39:50.901Z,6.68
2019-03-16T06:42:22.155Z,6.74
2019-03-16T06:44:53.768Z,6.69
2019-03-16T06:47:25.417Z,6.72
2019-03-16T06:49:56.971Z,6.82
2019-03-16T06:52:28.085Z,6.81
2019-03-16T06:54:59.250Z,6.86
2019-03-16T06:57:30.373Z,6.80
2019-03-16T07:00:01.594Z,6.96
2019-03-16T07:02:35.800Z,6.75
2019-03-16T07:05:07.923Z,6.83
2019-03-16T07:07:39.109Z,6.80
2019-03-16T07:10:10.493Z,6.90
2019-03-16T07:12:41.738Z,6.98
2019-03-16T07:15:12.952Z,7.00
2019-03-16T07:17:44.561Z,7.13
2019-03-16T07:20:17.283Z,7.22
2019-03-16T07:22:49.749Z,7.09
2019-03-16T07:25:20.997Z,7.08
2019-03-16T07:27:52.194Z,7.05
2019-03-16T07:30:23.970Z,7.30
2019-03-16T07:32:55.180Z,7.34
2019-03-16T07:35:26.755Z,7.34
2019-03-16T07:37:57.983Z,7.30
2019-03-16T07:40:29.126Z,7.33
2019-03-16T07:43:00.411Z,7.44
2019-03-16T07:45:31.551Z,7.35
2019-03-16T07:48:02.786Z,7.34
2019-03-16T07:50:33.956Z,7.34
2019-03-16T07:53:06.698Z,7.39
2019-03-16T07:55:37.990Z,7.35
2019-03-16T07:58:09.525Z,7.44
2019-03-16T08:00:40.751Z,7.58
2019-03-16T08:03:12.170Z,7.60
2019-03-16T08:05:43.377Z,7.55
2019-03-16T08:08:14.564Z,7.70
2019-03-16T08:10:45.827Z,7.71
2019-03-16T08:14:55.377Z,7.89
2019-03-16T08:17:27.132Z,7.74
2019-03-16T08:19:58.438Z,7.81
2019-03-16T08:22:29.653Z,7.81
2019-03-16T08:25:01.182Z,7.72
2019-03-16T08:27:32.401Z,7.85
2019-03-16T08:30:03.576Z,7.83
2019-03-16T08:32:34.887Z,7.89
2019-03-16T08:35:06.758Z,7.94
2019-03-16T08:37:38.278Z,8.04
2019-03-16T08:40:11.129Z,7.79
2019-03-16T08:42:42.748Z,8.03
2019-03-16T08:45:13.892Z,8.04
2019-03-16T08:47:45.053Z,7.87
2019-03-16T08:50:16.715Z,8.14
2019-03-16T08:52:47.954Z,8.28
2019-03-16T08:55:19.197Z,8.14
2019-03-16T08:57:50.501Z,8.38
2019-03-16T09:00:21.736Z,8.43
2019-03-16T09:02:52.983Z,8.43
2019-03-16T09:05:24.236Z,8.48
2019-03-16T09:07:55.381Z,8.27
2019-03-16T09:10:27.052Z,8.22
2019-03-16T09:12:58.237Z,8.40
2019-03-16T09:15:29.521Z,8.35
2019-03-16T09:18:00.767Z,8.25
2019-03-16T09:20:32.033Z,8.23
2019-03-16T09:23:03.693Z,8.55
2019-03-16T09:25:34.943Z,8.52
2019-03-16T09:28:17.838Z,8.43
2019-03-16T09:30:39.319Z,8.50
2019-03-16T09:33:10.482Z,8.66
2019-03-16T09:35:42.408Z,8.35
2019-03-16T09:38:13.651Z,8.47
2019-03-16T09:40:45.401Z,8.56
2019-03-16T09:43:16.613Z,8.82
2019-03-16T09:45:47.781Z,8.59
2019-03-16T09:48:19.140Z,8.53
2019-03-16T09:50:50.601Z,8.56
2019-03-16T09:53:21.857Z,8.58
2019-03-16T09:55:53.093Z,8.80
2019-03-16T09:58:31.103Z,8.91
2019-03-16T10:00:57.703Z,8.77
2019-03-16T10:03:33.547Z,8.77
2019-03-16T10:06:05.375Z,8.80
2019-03-16T10:08:36.654Z,8.83
2019-03-16T10:11:07.831Z,8.91
2019-03-16T10:13:39.183Z,8.94
2019-03-16T10:16:10.551Z,8.92
2019-03-16T10:18:42.147Z,9.00
2019-03-16T10:21:13.391Z,9.00
2019-03-16T10:23:44.581Z,9.03
2019-03-16T10:26:15.882Z,9.07
2019-03-16T10:28:47.062Z,9.23
2019-03-16T10:31:18.670Z,9.16
2019-03-16T10:33:50.169Z,8.48
2019-03-16T10:36:21.417Z,8.07
2019-03-16T10:38:52.694Z,7.84
2019-03-16T10:41:23.861Z,7.58
2019-03-16T10:43:55.062Z,7.47
2019-03-16T10:46:26.280Z,7.43
2019-03-16T10:48:57.476Z,7.33
2019-03-16T10:51:28.579Z,7.37
2019-03-16T10:54:00.269Z,7.15
2019-03-16T10:56:31.914Z,7.14
2019-03-16T10:59:03.395Z,7.30
2019-03-16T11:01:34.743Z,7.33
2019-03-16T11:04:10.159Z,7.44
2019-03-16T11:06:41.386Z,6.98
2019-03-16T11:09:12.579Z,6.76
2019-03-16T11:11:45.510Z,6.87
2019-03-16T11:14:16.780Z,6.90
2019-03-16T11:16:47.947Z,6.82
2019-03-16T11:19:19.577Z,6.78
2019-03-16T11:21:50.897Z,6.96
2019-03-16T11:24:22.210Z,6.99
2019-03-16T11:26:53.857Z,7.02
2019-03-16T11:29:25.003Z,7.00
2019-03-16T11:31:56.247Z,7.05
2019-03-16T11:34:30.211Z,7.01
2019-03-16T11:37:01.572Z,7.08
2019-03-16T11:39:32.786Z,7.05
2019-03-16T11:42:03.985Z,7.04
2019-03-16T11:44:36.235Z,7.23
2019-03-16T11:47:07.404Z,7.24
2019-03-16T11:49:39.062Z,7.12
2019-03-16T11:52:10.347Z,7.12
2019-03-16T11:54:41.581Z,7.12
2019-03-16T11:57:12.891Z,7.36
2019-03-16T11:59:44.135Z,7.38
2019-03-16T12:02:16.006Z,7.53
2019-03-16T12:05:57.456Z,7.48
2019-03-16T12:08:28.645Z,7.48
2019-03-16T12:10:59.952Z,7.16
2019-03-16T12:13:31.150Z,7.25
2019-03-16T12:16:02.670Z,7.49
2019-03-16T12:18:33.881Z,7.55
2019-03-16T12:21:06.507Z,7.50
2019-03-16T12:23:37.895Z,7.51
2019-03-16T12:26:09.495Z,7.64
2019-03-16T12:28:42.148Z,7.48
2019-03-16T12:31:13.293Z,7.17
2019-03-16T12:33:44.441Z,7.20
2019-03-16T12:36:15.623Z,6.99
2019-03-16T12:38:46.805Z,7.11
2019-03-16T12:41:18.913Z,7.18
2019-03-16T12:43:50.131Z,7.27
2019-03-16T12:46:21.373Z,7.11
2019-03-16T12:48:52.837Z,7.13
2019-03-16T12:51:24.062Z,6.85
2019-03-16T12:53:55.659Z,6.96
2019-03-16T12:56:27.204Z,7.03
2019-03-16T12:59:10.017Z,7.19
2019-03-16T13:01:31.352Z,7.14
2019-03-16T13:04:03.220Z,7.10
2019-03-16T13:06:34.409Z,7.25
2019-03-16T13:09:07.394Z,7.05
2019-03-16T13:11:38.578Z,7.35
2019-03-16T13:14:10.042Z,7.18
2019-03-16T13:16:41.210Z,7.12
2019-03-16T13:19:12.713Z,7.08
2019-03-16T13:21:44.096Z,7.28
2019-03-16T13:24:15.362Z,6.95
2019-03-16T13:26:46.502Z,6.88
2019-03-16T13:29:19.204Z,6.96
2019-03-16T13:31:51.059Z,7.15
2019-03-16T13:34:22.748Z,7.08
2019-03-16T13:36:53.948Z,6.96
2019-03-16T13:39:26.044Z,6.53
2019-03-16T13:41:57.260Z,6.77
2019-03-16T13:44:38.836Z,6.82
2019-03-16T13:47:10.020Z,6.74
2019-03-16T13:49:41.330Z,6.90
2019-03-16T13:52:12.939Z,6.68
2019-03-16T13:54:44.429Z,6.92
2019-03-16T13:57:15.709Z,7.05
2019-03-16T13:59:47.079Z,6.90
2019-03-16T14:02:18.703Z,6.91
2019-03-16T14:04:50.189Z,6.95
2019-03-16T14:07:22.523Z,6.71
2019-03-16T14:09:53.916Z,6.57
2019-03-16T14:12:25.292Z,6.56
2019-03-16T14:14:57.001Z,6.60
2019-03-16T14:17:29.435Z,6.63
2019-03-16T14:20:00.581Z,6.59
2019-03-16T14:22:31.833Z,6.71
2019-03-16T14:25:03.379Z,6.70
2019-03-16T14:27:34.643Z,6.69
2019-03-16T14:30:06.814Z,6.59
2019-03-16T14:32:38.094Z,6.67
2019-03-16T14:35:09.484Z,6.69
2019-03-16T14:37:40.650Z,6.58
2019-03-16T14:40:14.161Z,6.61
2019-03-16T14:42:48.439Z,6.46
2019-03-16T14:45:20.330Z,6.52
2019-03-16T14:47:51.565Z,6.44
2019-03-16T14:50:22.867Z,6.44
2019-03-16T14:52:56.546Z,6.42
2019-03-16T14:55:28.656Z,6.42
2019-03-16T14:58:00.001Z,6.39
2019-03-16T15:00:38.506Z,6.34
2019-03-16T15:03:05.371Z,6.37
2019-03-16T15:05:36.704Z,6.42
2019-03-16T15:08:08.338Z,6.41
2019-03-16T15:10:39.848Z,6.40
2019-03-16T15:13:11.799Z,6.38
2019-03-16T15:15:45.117Z,6.36
2019-03-16T15:18:17.876Z,6.34
2019-03-16T15:20:49.484Z,6.40
2019-03-16T15:23:20.702Z,6.26
2019-03-16T15:25:51.981Z,6.30
2019-03-16T15:28:23.286Z,6.32
2019-03-16T15:30:54.848Z,6.37
2019-03-16T15:33:26.170Z,6.33
2019-03-16T15:35:57.375Z,6.35
2019-03-16T15:38:30.867Z,6.37
2019-03-16T15:41:02.324Z,6.42
2019-03-16T15:43:33.484Z,6.44
2019-03-16T15:46:06.034Z,6.45
2019-03-16T15:48:37.276Z,6.45
2019-03-16T15:51:08.570Z,6.46
2019-03-16T15:53:39.812Z,6.46
2019-03-16T15:56:11.012Z,6.45
2019-03-16T15:58:42.298Z,6.44
2019-03-16T16:01:13.704Z,6.40
2019-03-16T16:03:44.895Z,6.53
2019-03-16T16:06:16.420Z,6.64
2019-03-16T16:08:47.743Z,6.68
2019-03-16T16:11:18.893Z,6.65
2019-03-16T16:13:50.153Z,6.61
2019-03-16T16:16:21.404Z,6.65
2019-03-16T16:18:54.147Z,6.71
2019-03-16T16:21:25.511Z,6.75
2019-03-16T16:23:56.759Z,6.83
2019-03-16T16:26:27.978Z,6.87
2019-03-16T16:28:59.354Z,6.90
2019-03-16T16:31:30.668Z,6.91
2019-03-16T16:34:03.053Z,6.91
2019-03-16T16:36:38.978Z,6.87
2019-03-16T16:39:10.864Z,6.95
2019-03-16T16:41:42.093Z,6.89
2019-03-16T16:44:13.816Z,6.95
2019-03-16T16:46:45.138Z,7.05
2019-03-16T16:49:17.428Z,7.10
2019-03-16T16:51:49.117Z,7.21
2019-03-16T16:54:20.308Z,7.27
2019-03-16T16:56:52.303Z,7.38
2019-03-16T16:59:23.545Z,7.45
2019-03-16T17:01:54.722Z,7.52
2019-03-16T17:04:25.831Z,7.60
2019-03-16T17:06:57.193Z,7.61
2019-03-16T17:09:28.528Z,7.68
2019-03-16T17:12:01.173Z,7.75
2019-03-16T17:14:32.765Z,7.82
2019-03-16T17:17:04.378Z,7.89
2019-03-16T17:19:35.704Z,8.00
2019-03-16T17:22:07.497Z,8.09
2019-03-16T17:24:39.998Z,8.19
2019-03-16T17:27:11.712Z,8.34
2019-03-16T17:29:43.028Z,8.43
2019-03-16T17:32:14.485Z,8.48
2019-03-16T17:34:45.774Z,8.54
2019-03-16T17:37:17.016Z,8.59
2019-03-16T17:39:48.292Z,8.72
2019-03-16T17:42:19.768Z,8.77
2019-03-16T17:44:51.315Z,8.80
2019-03-16T17:47:23.780Z,8.80
2019-03-16T17:49:56.989Z,8.86
2019-03-16T17:52:29.252Z,8.87
2019-03-16T17:55:08.625Z,8.89
2019-03-16T17:57:40.386Z,8.95
2019-03-16T18:00:13.151Z,8.96
2019-03-16T18:02:51.328Z,9.01
2019-03-16T18:05:17.764Z,9.01
2019-03-16T18:07:49.145Z,9.02
2019-03-16T18:10:20.634Z,9.04
2019-03-16T18:12:51.953Z,9.02
2019-03-16T18:15:24.077Z,9.03
2019-03-16T18:17:57.022Z,9.01
2019-03-16T18:20:31.521Z,9.00
2019-03-16T18:23:03.292Z,9.00
2019-03-16T18:25:37.826Z,8.98
2019-03-16T18:28:08.634Z,8.96
2019-03-16T18:30:39.969Z,8.95
2019-03-16T18:33:11.440Z,8.96
2019-03-16T18:35:42.772Z,8.93
2019-03-16T18:38:14.099Z,8.94
2019-03-16T18:40:45.745Z,8.95
2019-03-16T18:43:17.102Z,8.94
2019-03-16T18:45:48.446Z,8.97
2019-03-16T18:48:20.211Z,8.98
2019-03-16T18:50:52.938Z,9.00
2019-03-16T18:53:24.198Z,8.98
2019-03-16T18:55:56.471Z,8.98
2019-03-16T18:58:37.008Z,8.99
2019-03-16T19:01:00.908Z,8.99
2019-03-16T19:03:35.044Z,9.01
2019-03-16T19:06:08.792Z,8.98
2019-03-16T19:08:40.345Z,8.97
2019-03-16T19:11:11.998Z,8.97
2019-03-16T19:13:43.220Z,8.95
2019-03-16T19:16:14.392Z,8.96
2019-03-16T19:18:46.791Z,8.95
2019-03-16T19:21:18.074Z,8.94
2019-03-16T19:23:49.250Z,8.95
2019-03-16T19:26:20.841Z,8.93
2019-03-16T19:28:52.162Z,8.93
2019-03-16T19:31:23.783Z,8.94
2019-03-16T19:33:55.490Z,8.90
2019-03-16T19:36:26.684Z,8.87
2019-03-16T19:38:57.914Z,8.90
2019-03-16T19:41:29.160Z,8.89
2019-03-16T19:44:00.399Z,8.91
2019-03-16T19:46:31.653Z,8.92
2019-03-16T19:49:03.469Z,8.89
2019-03-16T19:51:34.791Z,8.89
2019-03-16T19:54:06.031Z,8.88
2019-03-16T19:56:37.299Z,8.88
2019-03-16T19:59:08.482Z,8.85
2019-03-16T20:01:39.688Z,8.87
2019-03-16T20:04:14.315Z,8.87
2019-03-16T20:06:45.527Z,8.88
2019-03-16T20:09:16.883Z,8.88
2019-03-16T20:11:48.084Z,8.87
2019-03-16T20:14:19.315Z,8.87
2019-03-16T20:16:50.641Z,8.86
2019-03-16T20:19:22.172Z,8.88
2019-03-16T20:21:53.724Z,8.82
2019-03-16T20:24:25.044Z,8.83
2019-03-16T20:26:57.194Z,8.81
2019-03-16T20:29:28.949Z,8.77
2019-03-16T20:32:00.432Z,8.77
2019-03-16T20:34:32.419Z,8.74
2019-03-16T20:37:04.194Z,8.72
2019-03-16T20:39:36.049Z,8.67
2019-03-16T20:42:07.251Z,8.68
2019-03-16T20:44:38.823Z,8.68
2019-03-16T20:47:10.691Z,8.64
2019-03-16T20:49:43.119Z,8.67
2019-03-16T20:52:14.831Z,8.77
2019-03-16T20:54:46.244Z,8.81
2019-03-16T20:57:17.904Z,8.85
2019-03-16T20:59:49.182Z,8.89
2019-03-16T21:02:20.370Z,8.91
2019-03-16T21:04:51.781Z,8.97
2019-03-16T21:07:22.993Z,9.00
2019-03-16T21:09:54.772Z,9.08
2019-03-16T21:12:26.008Z,9.09
2019-03-16T21:14:57.648Z,9.13
2019-03-16T21:17:29.895Z,9.21
2019-03-16T21:20:02.362Z,9.26
2019-03-16T21:22:37.519Z,9.28
2019-03-16T21:25:07.899Z,9.37
2019-03-16T21:27:40.141Z,9.42
2019-03-16T21:30:13.324Z,9.45
2019-03-16T21:32:44.725Z,9.56
2019-03-16T21:35:15.941Z,9.54
2019-03-16T21:37:47.702Z,9.58
2019-03-16T21:40:20.614Z,9.61
2019-03-16T21:42:53.028Z,9.64
2019-03-16T21:45:24.343Z,9.67
2019-03-16T21:48:00.157Z,9.76
2019-03-16T21:50:29.186Z,9.78
2019-03-16T21:53:00.497Z,9.78
2019-03-16T21:55:31.900Z,9.80
2019-03-16T21:58:06.091Z,9.81
2019-03-16T22:00:37.302Z,9.79
2019-03-16T22:03:09.170Z,9.84
2019-03-16T22:05:40.342Z,9.92
2019-03-16T22:08:11.549Z,9.91
2019-03-16T22:10:42.822Z,9.93
2019-03-16T22:13:14.000Z,9.92
2019-03-16T22:15:45.340Z,9.93
2019-03-16T22:18:16.894Z,9.93
2019-03-16T22:20:48.080Z,9.91
2019-03-16T22:23:19.258Z,9.99
2019-03-16T22:25:53.348Z,9.97
2019-03-16T22:28:24.512Z,10.02
2019-03-16T22:30:55.720Z,9.99
2019-03-16T22:33:27.275Z,9.98
2019-03-16T22:35:58.476Z,10.03
2019-03-16T22:38:29.664Z,10.10
2019-03-16T22:41:01.272Z,10.15
2019-03-16T22:43:32.530Z,10.20
2019-03-16T22:46:05.484Z,10.18
2019-03-16T22:48:37.649Z,10.21
2019-03-16T22:51:08.791Z,10.22
2019-03-16T22:53:40.010Z,10.24
2019-03-16T22:56:11.318Z,10.19
2019-03-16T22:58:43.062Z,10.24
2019-03-16T23:01:14.250Z,10.28
2019-03-16T23:03:45.740Z,10.26
2019-03-16T23:06:17.603Z,10.23
2019-03-16T23:08:48.904Z,10.23
2019-03-16T23:11:20.215Z,10.28
2019-03-16T23:13:51.911Z,10.28
2019-03-16T23:16:23.598Z,10.27
2019-03-16T23:18:54.916Z,10.28
2019-03-16T23:21:27.394Z,10.25
2019-03-16T23:23:59.618Z,10.27
2019-03-16T23:26:38.263Z,10.30
2019-03-16T23:29:05.194Z,10.27
2019-03-16T23:31:36.611Z,10.26
2019-03-16T23:34:18.503Z,10.30
2019-03-16T23:36:43.093Z,10.26
2019-03-16T23:39:14.714Z,10.33
2019-03-16T23:41:46.790Z,10.34
2019-03-16T23:44:17.999Z,10.30
2019-03-16T23:48:26.814Z,10.31
2019-03-16T23:50:58.436Z,10.20
2019-03-16T23:53:29.708Z,10.18
2019-03-16T23:56:01.362Z,10.16
2019-03-16T23:58:33.022Z,10.16
